Terminal Aerodrome Forecast
Issued by NWS

Current Version | Previous Version | Text Only | Print | Product List | Glossary Off
Versions: 1 2 3 4 5 6 7 8 9 10 11 12 13 14 15 16 17 18 19

000
FTUS41 KPBZ 251726
TAFHLG
TAF
KHLG 251726Z 2518/2618 24012G18KT P6SM VCTS BKN035CB
     FM252300 26003KT P6SM SCT250
     FM260700 26003KT 3SM BR SCT250
     FM261000 28003KT 2SM BR SCT003
     FM261300 30005KT P6SM SKC=

USA.gov is the U.S. government's official web portal to all federal, state and local government web resources and services.